createdAt,value
2023-04-18T00:00:05.174Z,9.94
2023-04-18T00:01:04.085Z,9.73
2023-04-18T00:02:04.190Z,9.73
2023-04-18T00:03:04.859Z,9.68
2023-04-18T00:04:05.473Z,9.61
2023-04-18T00:05:04.157Z,9.66
2023-04-18T00:06:04.168Z,9.60
2023-04-18T00:07:04.078Z,9.49
2023-04-18T00:08:04.192Z,9.49
2023-04-18T00:09:04.700Z,9.39
2023-04-18T00:10:04.393Z,9.46
2023-04-18T00:11:04.014Z,9.31
2023-04-18T00:12:04.008Z,9.40
2023-04-18T00:13:04.019Z,9.35
2023-04-18T00:14:04.761Z,9.34
2023-04-18T00:15:04.016Z,9.42
2023-04-18T00:16:04.309Z,9.61
2023-04-18T00:17:03.999Z,9.46
2023-04-18T00:18:04.315Z,9.49
2023-04-18T00:19:03.976Z,9.40
2023-04-18T00:20:04.015Z,9.40
2023-04-18T00:21:03.937Z,9.39
2023-04-18T00:22:04.115Z,9.46
2023-04-18T00:23:03.975Z,9.57
2023-04-18T00:24:03.932Z,9.68
2023-04-18T00:25:03.969Z,9.64
2023-04-18T00:26:03.947Z,9.67
2023-04-18T00:27:03.922Z,9.61
2023-04-18T00:28:03.953Z,9.73
2023-04-18T00:29:03.924Z,9.70
2023-04-18T00:30:03.914Z,9.73
2023-04-18T00:31:03.944Z,9.52
2023-04-18T00:32:03.923Z,9.64
2023-04-18T00:33:03.945Z,9.61
2023-04-18T00:34:03.884Z,9.81
2023-04-18T00:35:03.864Z,9.89
2023-04-18T00:36:03.942Z,9.94
2023-04-18T00:37:03.913Z,9.97
2023-04-18T00:38:03.858Z,10.15
2023-04-18T00:39:03.822Z,10.15
2023-04-18T00:40:03.847Z,10.06
2023-04-18T00:41:36.421Z,10.10
2023-04-18T00:42:04.157Z,10.03
2023-04-18T00:43:36.351Z,10.19
2023-04-18T00:44:36.366Z,10.03
2023-04-18T00:45:03.917Z,10.07
2023-04-18T00:46:37.426Z,9.68
2023-04-18T00:47:37.463Z,9.60
2023-04-18T00:48:36.753Z,9.71
2023-04-18T00:49:36.288Z,9.79
2023-04-18T00:50:04.001Z,10.06
2023-04-18T00:51:03.796Z,9.78
2023-04-18T00:52:03.748Z,9.68
2023-04-18T00:53:03.802Z,9.57
2023-04-18T00:54:03.798Z,9.31
2023-04-18T00:55:03.820Z,9.53
2023-04-18T00:56:03.828Z,9.61
2023-04-18T00:57:03.777Z,9.75
2023-04-18T00:58:03.731Z,9.60
2023-04-18T00:59:03.725Z,9.50
2023-04-18T01:00:03.704Z,9.58
2023-04-18T01:01:03.755Z,9.56
2023-04-18T01:02:03.860Z,9.67
2023-04-18T01:03:03.908Z,9.67
2023-04-18T01:04:03.761Z,9.85
2023-04-18T01:05:04.713Z,9.88
2023-04-18T01:06:03.682Z,9.78
2023-04-18T01:07:03.682Z,9.66
2023-04-18T01:08:03.710Z,9.61
2023-04-18T01:09:03.658Z,9.58
2023-04-18T01:10:03.671Z,9.75
2023-04-18T01:11:03.666Z,9.40
2023-04-18T01:12:03.616Z,9.58
2023-04-18T01:13:03.601Z,9.52
2023-04-18T01:14:03.666Z,9.46
2023-04-18T01:15:03.610Z,9.52
2023-04-18T01:16:03.685Z,9.75
2023-04-18T01:17:03.604Z,9.79
2023-04-18T01:18:03.698Z,9.76
2023-04-18T01:19:03.616Z,9.71
2023-04-18T01:20:03.874Z,9.88
2023-04-18T01:21:03.557Z,9.91
2023-04-18T01:22:03.593Z,9.85
2023-04-18T01:23:03.549Z,9.73
2023-04-18T01:24:03.561Z,9.61
2023-04-18T01:25:03.555Z,9.50
2023-04-18T01:26:03.563Z,9.42
2023-04-18T01:27:03.524Z,9.42
2023-04-18T01:28:03.535Z,9.32
2023-04-18T01:29:03.532Z,9.24
2023-04-18T01:30:03.497Z,9.38
2023-04-18T01:31:03.590Z,9.32
2023-04-18T01:32:03.542Z,9.31
2023-04-18T01:33:03.561Z,9.23
2023-04-18T01:34:03.507Z,9.25
2023-04-18T01:35:03.503Z,9.28
2023-04-18T01:36:03.511Z,9.12
2023-04-18T01:37:03.478Z,8.97
2023-04-18T01:38:03.510Z,8.91
2023-04-18T01:39:03.522Z,9.02
2023-04-18T01:40:03.453Z,9.02
2023-04-18T01:41:03.477Z,8.94
2023-04-18T01:42:03.492Z,8.84
2023-04-18T01:43:03.456Z,8.87
2023-04-18T01:44:03.433Z,8.72
2023-04-18T01:45:03.445Z,8.66
2023-04-18T01:46:03.528Z,8.71
2023-04-18T01:47:03.455Z,8.69
2023-04-18T01:48:03.455Z,8.66
2023-04-18T01:49:03.454Z,8.60
2023-04-18T01:50:03.407Z,8.68
2023-04-18T01:51:03.401Z,8.68
2023-04-18T01:52:04.363Z,8.57
2023-04-18T01:53:03.376Z,8.60
2023-04-18T01:54:03.367Z,8.62
2023-04-18T01:55:03.345Z,8.68
2023-04-18T01:56:03.394Z,8.76
2023-04-18T01:57:03.359Z,8.83
2023-04-18T01:58:03.351Z,8.94
2023-04-18T01:59:03.365Z,8.83
2023-04-18T02:00:03.353Z,8.83
2023-04-18T02:01:04.331Z,8.78
2023-04-18T02:02:03.466Z,8.87
2023-04-18T02:03:03.398Z,8.88
2023-04-18T02:04:03.546Z,9.05
2023-04-18T02:05:03.299Z,9.01
2023-04-18T02:06:03.291Z,9.12
2023-04-18T02:07:03.324Z,9.05
2023-04-18T02:08:03.277Z,9.02
2023-04-18T02:09:03.297Z,8.88
2023-04-18T02:10:03.304Z,8.78
2023-04-18T02:11:03.253Z,8.81
2023-04-18T02:12:03.284Z,8.72
2023-04-18T02:13:03.265Z,8.54
2023-04-18T02:14:03.263Z,8.53
2023-04-18T02:15:03.278Z,8.50
2023-04-18T02:16:03.361Z,8.54
2023-04-18T02:17:03.215Z,8.60
2023-04-18T02:18:03.264Z,8.51
2023-04-18T02:19:03.267Z,8.58
2023-04-18T02:20:03.206Z,8.54
2023-04-18T02:21:03.196Z,8.42
2023-04-18T02:22:03.267Z,8.54
2023-04-18T02:23:03.209Z,8.45
2023-04-18T02:24:03.222Z,8.58
2023-04-18T02:25:03.163Z,8.57
2023-04-18T02:26:03.145Z,8.63
2023-04-18T02:27:03.179Z,8.40
2023-04-18T02:28:03.168Z,8.36
2023-04-18T02:29:03.219Z,8.50
2023-04-18T02:30:03.164Z,8.66
2023-04-18T02:31:03.124Z,8.86
2023-04-18T02:32:03.231Z,9.12
2023-04-18T02:33:03.142Z,9.24
2023-04-18T02:34:03.139Z,9.32
2023-04-18T02:35:03.111Z,9.25
2023-04-18T02:36:03.099Z,9.31
2023-04-18T02:37:03.130Z,9.25
2023-04-18T02:38:03.143Z,9.18
2023-04-18T02:39:03.068Z,9.10
2023-04-18T02:40:03.083Z,8.97
2023-04-18T02:41:03.062Z,9.06
2023-04-18T02:42:03.101Z,9.09
2023-04-18T02:43:03.043Z,8.93
2023-04-18T02:44:03.050Z,9.02
2023-04-18T02:45:03.034Z,8.91
2023-04-18T02:46:03.099Z,8.91
2023-04-18T02:47:03.023Z,8.94
2023-04-18T02:48:03.033Z,9.04
2023-04-18T02:49:03.017Z,9.13
2023-04-18T02:50:02.999Z,9.02
2023-04-18T02:51:03.025Z,9.13
2023-04-18T02:52:03.020Z,9.23
2023-04-18T02:53:03.031Z,9.24
2023-04-18T02:54:03.007Z,9.16
2023-04-18T02:55:02.996Z,9.02
2023-04-18T02:56:02.966Z,8.88
2023-04-18T02:57:02.964Z,8.91
2023-04-18T02:58:02.948Z,8.90
2023-04-18T02:59:02.970Z,9.15
2023-04-18T03:00:02.981Z,9.38
2023-04-18T03:01:02.973Z,9.34
2023-04-18T03:02:02.917Z,9.27
2023-04-18T03:03:03.013Z,9.13
2023-04-18T03:04:02.924Z,9.13
2023-04-18T03:05:02.984Z,9.20
2023-04-18T03:06:02.878Z,9.23
2023-04-18T03:07:02.882Z,9.15
2023-04-18T03:08:02.908Z,9.27
2023-04-18T03:09:02.881Z,9.20
2023-04-18T03:10:02.966Z,9.20
2023-04-18T03:11:02.869Z,9.18
2023-04-18T03:12:02.841Z,9.27
2023-04-18T03:13:02.863Z,9.23
2023-04-18T03:14:02.849Z,9.31
2023-04-18T03:15:02.859Z,9.40
2023-04-18T03:16:02.895Z,9.34
2023-04-18T03:17:02.852Z,9.38
2023-04-18T03:18:02.937Z,9.56
2023-04-18T03:19:02.787Z,9.63
2023-04-18T03:20:02.788Z,9.50
2023-04-18T03:21:03.739Z,9.43
2023-04-18T03:22:02.774Z,9.38
2023-04-18T03:23:02.849Z,9.34
2023-04-18T03:24:02.778Z,9.50
2023-04-18T03:25:02.771Z,9.52
2023-04-18T03:26:02.768Z,9.27
2023-04-18T03:27:02.777Z,9.24
2023-04-18T03:28:02.752Z,9.30
2023-04-18T03:29:02.760Z,9.35
2023-04-18T03:30:02.736Z,9.45
2023-04-18T03:31:02.742Z,9.52
2023-04-18T03:32:02.769Z,9.49
2023-04-18T03:33:03.771Z,9.64
2023-04-18T03:34:02.700Z,9.57
2023-04-18T03:35:02.721Z,9.52
2023-04-18T03:36:02.691Z,9.66
2023-04-18T03:37:02.731Z,9.75
2023-04-18T03:38:02.692Z,9.35
2023-04-18T03:39:02.726Z,9.32
2023-04-18T03:40:02.672Z,9.31
2023-04-18T03:41:02.659Z,9.49
2023-04-18T03:42:02.668Z,9.38
2023-04-18T03:43:02.734Z,9.35
2023-04-18T03:44:02.744Z,9.38
2023-04-18T03:45:02.646Z,9.31
2023-04-18T03:46:02.671Z,9.42
2023-04-18T03:47:02.637Z,9.38
2023-04-18T03:48:02.665Z,9.35
2023-04-18T03:49:02.622Z,9.31
2023-04-18T03:50:02.615Z,9.35
2023-04-18T03:51:02.608Z,9.39
2023-04-18T03:52:02.592Z,9.45
2023-04-18T03:53:02.700Z,9.31
2023-04-18T03:54:02.613Z,9.27
2023-04-18T03:55:02.569Z,9.24
2023-04-18T03:56:02.573Z,9.38
2023-04-18T03:57:02.563Z,9.52
2023-04-18T03:58:02.587Z,9.53
2023-04-18T03:59:02.579Z,9.46
2023-04-18T04:00:02.632Z,9.35
2023-04-18T04:01:02.550Z,9.35
2023-04-18T04:02:02.608Z,9.35
2023-04-18T04:03:02.645Z,9.50
2023-04-18T04:04:02.647Z,9.57
2023-04-18T04:05:02.728Z,9.52
2023-04-18T04:06:02.518Z,9.40
2023-04-18T04:07:02.519Z,9.32
2023-04-18T04:08:02.540Z,9.30
2023-04-18T04:09:02.522Z,9.23
2023-04-18T04:10:02.496Z,9.49
2023-04-18T04:11:02.495Z,9.52
2023-04-18T04:12:02.510Z,9.63
2023-04-18T04:13:02.524Z,9.67
2023-04-18T04:14:02.490Z,9.57
2023-04-18T04:15:02.458Z,9.66
2023-04-18T04:16:02.498Z,9.63
2023-04-18T04:17:02.494Z,9.60
2023-04-18T04:18:02.556Z,9.53
2023-04-18T04:19:02.482Z,9.46
2023-04-18T04:20:02.485Z,9.31
2023-04-18T04:21:02.448Z,9.35
2023-04-18T04:22:02.424Z,9.34
2023-04-18T04:23:02.419Z,9.43
2023-04-18T04:24:02.468Z,9.52
2023-04-18T04:25:02.395Z,9.42
2023-04-18T04:26:02.432Z,9.42
2023-04-18T04:27:02.407Z,9.49
2023-04-18T04:28:02.430Z,9.48
2023-04-18T04:29:02.397Z,9.48
2023-04-18T04:30:02.362Z,9.52
2023-04-18T04:31:02.355Z,9.60
2023-04-18T04:32:02.481Z,9.64
2023-04-18T04:33:02.377Z,9.57
2023-04-18T04:34:02.380Z,9.34
2023-04-18T04:35:02.347Z,9.28
2023-04-18T04:36:02.306Z,9.56
2023-04-18T04:37:02.330Z,9.46
2023-04-18T04:38:02.370Z,9.48
2023-04-18T04:39:02.308Z,9.61
2023-04-18T04:40:02.302Z,9.53
2023-04-18T04:41:02.292Z,9.67
2023-04-18T04:42:02.393Z,9.79
2023-04-18T04:43:02.280Z,9.68
2023-04-18T04:44:02.273Z,9.58
2023-04-18T04:45:02.349Z,9.67
2023-04-18T04:46:02.356Z,9.73
2023-04-18T04:47:02.293Z,9.83
2023-04-18T04:48:02.306Z,9.81
2023-04-18T04:49:02.250Z,9.78
2023-04-18T04:50:02.252Z,9.89
2023-04-18T04:51:02.267Z,9.79
2023-04-18T04:52:02.303Z,9.71
2023-04-18T04:53:02.236Z,9.79
2023-04-18T04:54:02.253Z,9.73
2023-04-18T04:55:02.232Z,9.89
2023-04-18T04:56:02.249Z,9.78
2023-04-18T04:57:02.228Z,9.70
2023-04-18T04:58:02.248Z,9.78
2023-04-18T04:59:02.258Z,9.78
2023-04-18T05:00:02.189Z,9.79
2023-04-18T05:01:02.235Z,9.64
2023-04-18T05:02:02.315Z,9.85
2023-04-18T05:03:02.364Z,9.89
2023-04-18T05:04:02.369Z,9.73
2023-04-18T05:05:02.160Z,9.93
2023-04-18T05:06:02.163Z,10.03
2023-04-18T05:07:02.155Z,9.89
2023-04-18T05:08:02.185Z,9.79
2023-04-18T05:09:02.139Z,9.89
2023-04-18T05:10:02.134Z,9.71
2023-04-18T05:11:02.117Z,9.94
2023-04-18T05:12:02.167Z,9.81
2023-04-18T05:13:02.116Z,10.03
2023-04-18T05:14:02.143Z,9.88
2023-04-18T05:15:02.116Z,9.88
2023-04-18T05:16:02.096Z,9.88
2023-04-18T05:17:02.279Z,9.85
2023-04-18T05:18:02.184Z,9.81
2023-04-18T05:19:02.188Z,9.96
2023-04-18T05:20:02.173Z,10.07
2023-04-18T05:21:02.056Z,10.09
2023-04-18T05:22:02.081Z,10.24
2023-04-18T05:23:02.082Z,10.33
2023-04-18T05:24:02.046Z,10.62
2023-04-18T05:25:02.035Z,10.59
2023-04-18T05:26:02.065Z,10.68
2023-04-18T05:27:02.036Z,10.15
2023-04-18T05:28:02.019Z,10.12
2023-04-18T05:29:02.106Z,10.07
2023-04-18T05:30:02.033Z,10.10
2023-04-18T05:31:02.164Z,9.99
2023-04-18T05:32:02.028Z,10.24
2023-04-18T05:33:02.051Z,10.22
2023-04-18T05:34:02.062Z,10.33
2023-04-18T05:35:01.999Z,10.10
2023-04-18T05:36:02.003Z,9.89
2023-04-18T05:37:02.017Z,9.89
2023-04-18T05:38:02.008Z,10.07
2023-04-18T05:39:01.955Z,10.12
2023-04-18T05:40:01.972Z,10.06
2023-04-18T05:41:01.970Z,10.10
2023-04-18T05:42:01.970Z,10.19
2023-04-18T05:43:01.921Z,10.34
2023-04-18T05:44:05.408Z,10.15
2023-04-18T05:45:02.940Z,10.10
2023-04-18T05:46:01.994Z,10.19
2023-04-18T05:47:01.917Z,9.97
2023-04-18T05:48:02.038Z,10.03
2023-04-18T05:49:01.913Z,10.10
2023-04-18T05:50:02.011Z,9.81
2023-04-18T05:51:01.927Z,9.78
2023-04-18T05:52:01.954Z,10.04
2023-04-18T05:53:01.940Z,9.94
2023-04-18T05:54:01.916Z,9.93
2023-04-18T05:55:01.934Z,9.96
2023-04-18T05:56:01.881Z,10.24
2023-04-18T05:57:04.245Z,10.10
2023-04-18T05:58:01.868Z,9.89
2023-04-18T05:59:01.888Z,9.88
2023-04-18T06:00:02.063Z,10.06
2023-04-18T06:01:01.842Z,10.24
2023-04-18T06:02:01.849Z,10.32
2023-04-18T06:03:02.162Z,10.03
2023-04-18T06:04:01.964Z,10.10
2023-04-18T06:05:01.909Z,10.32
2023-04-18T06:06:02.118Z,10.22
2023-04-18T06:07:02.765Z,9.85
2023-04-18T06:08:01.761Z,9.86
2023-04-18T06:09:01.780Z,9.86
2023-04-18T06:10:01.883Z,10.00
2023-04-18T06:11:01.798Z,10.15
2023-04-18T06:12:01.758Z,10.39
2023-04-18T06:13:01.792Z,10.14
2023-04-18T06:14:01.743Z,9.94
2023-04-18T06:15:01.837Z,9.91
2023-04-18T06:16:01.828Z,9.81
2023-04-18T06:17:01.832Z,10.15
2023-04-18T06:18:01.788Z,10.15
2023-04-18T06:19:01.748Z,10.12
2023-04-18T06:20:01.707Z,9.96
2023-04-18T06:21:01.701Z,9.79
2023-04-18T06:22:01.701Z,9.78
2023-04-18T06:23:01.697Z,9.75
2023-04-18T06:24:01.737Z,10.15
2023-04-18T06:25:01.709Z,10.07
2023-04-18T06:26:01.667Z,9.97
2023-04-18T06:27:01.767Z,9.96
2023-04-18T06:28:01.710Z,10.14
2023-04-18T06:29:01.644Z,10.32
2023-04-18T06:30:01.645Z,10.70
2023-04-18T06:31:01.622Z,10.66
2023-04-18T06:32:01.729Z,10.65
2023-04-18T06:33:01.666Z,10.33
2023-04-18T06:34:01.659Z,10.25
2023-04-18T06:35:01.606Z,10.32
2023-04-18T06:36:01.618Z,10.42
2023-04-18T06:37:01.685Z,10.24
2023-04-18T06:38:01.628Z,10.19
2023-04-18T06:39:01.609Z,10.46
2023-04-18T06:40:01.603Z,10.58
2023-04-18T06:41:01.563Z,10.59
2023-04-18T06:42:01.573Z,10.46
2023-04-18T06:43:01.573Z,10.30
2023-04-18T06:44:03.568Z,10.39
2023-04-18T06:45:02.581Z,10.33
2023-04-18T06:46:01.685Z,10.21
2023-04-18T06:47:01.638Z,10.22
2023-04-18T06:48:01.567Z,10.37
2023-04-18T06:49:01.557Z,10.10
2023-04-18T06:50:01.530Z,10.12
2023-04-18T06:51:01.536Z,10.24
2023-04-18T06:52:01.559Z,10.26
2023-04-18T06:53:01.534Z,10.24
2023-04-18T06:54:01.544Z,10.26
2023-04-18T06:55:01.517Z,10.34
2023-04-18T06:56:01.547Z,10.39
2023-04-18T06:57:01.549Z,10.26
2023-04-18T06:58:01.553Z,10.07
2023-04-18T06:59:01.521Z,10.10
2023-04-18T07:00:01.516Z,10.09
2023-04-18T07:01:01.543Z,9.85
2023-04-18T07:02:01.454Z,9.96
2023-04-18T07:03:01.584Z,10.01
2023-04-18T07:04:01.545Z,9.97
2023-04-18T07:05:01.539Z,10.19
2023-04-18T07:06:01.465Z,10.33
2023-04-18T07:07:01.429Z,10.56
2023-04-18T07:08:01.428Z,10.34
2023-04-18T07:09:01.394Z,10.12
2023-04-18T07:10:02.510Z,9.83
2023-04-18T07:11:01.408Z,9.97
2023-04-18T07:12:01.389Z,9.88
2023-04-18T07:13:01.370Z,10.04
2023-04-18T07:14:01.471Z,10.09
2023-04-18T07:15:01.348Z,10.04
2023-04-18T07:16:01.372Z,10.09
2023-04-18T07:17:01.380Z,10.34
2023-04-18T07:18:01.432Z,10.30
2023-04-18T07:19:01.362Z,10.18
2023-04-18T07:20:01.394Z,10.19
2023-04-18T07:21:01.380Z,10.33
2023-04-18T07:22:01.331Z,10.18
2023-04-18T07:23:01.322Z,10.09
2023-04-18T07:24:01.807Z,10.46
2023-04-18T07:25:01.369Z,10.37
2023-04-18T07:26:01.302Z,10.26
2023-04-18T07:27:01.356Z,10.15
2023-04-18T07:28:01.319Z,10.28
2023-04-18T07:29:01.275Z,10.33
2023-04-18T07:30:01.294Z,10.03
2023-04-18T07:31:01.525Z,9.88
2023-04-18T07:32:01.272Z,9.97
2023-04-18T07:33:01.286Z,9.99
2023-04-18T07:34:01.344Z,10.18
2023-04-18T07:35:01.317Z,10.32
2023-04-18T07:36:01.318Z,10.46
2023-04-18T07:37:02.276Z,10.58
2023-04-18T07:38:01.237Z,10.37
2023-04-18T07:39:01.266Z,10.36
2023-04-18T07:40:01.232Z,10.22
2023-04-18T07:41:01.239Z,10.25
2023-04-18T07:42:01.330Z,10.34
2023-04-18T07:43:01.256Z,10.46
2023-04-18T07:44:01.302Z,10.58
2023-04-18T07:45:01.204Z,10.40
2023-04-18T07:46:01.269Z,10.33
2023-04-18T07:47:01.239Z,10.15
2023-04-18T07:48:01.197Z,10.14
2023-04-18T07:49:01.179Z,10.12
2023-04-18T07:50:01.184Z,10.21
2023-04-18T07:51:01.197Z,10.17
2023-04-18T07:52:01.258Z,10.14
2023-04-18T07:53:01.182Z,10.46
2023-04-18T07:54:01.174Z,10.44
2023-04-18T07:55:01.124Z,10.81
2023-04-18T07:56:01.126Z,10.84
2023-04-18T07:57:01.102Z,10.68
2023-04-18T07:58:01.256Z,10.58
2023-04-18T07:59:01.089Z,10.39
2023-04-18T08:00:01.101Z,10.73
2023-04-18T08:01:01.085Z,10.95
2023-04-18T08:02:01.133Z,11.06
2023-04-18T08:03:01.261Z,10.91
2023-04-18T08:04:01.161Z,10.78
2023-04-18T08:05:01.184Z,11.10
2023-04-18T08:06:01.079Z,11.20
2023-04-18T08:07:01.097Z,11.09
2023-04-18T08:08:01.029Z,10.95
2023-04-18T08:09:01.033Z,11.03
2023-04-18T08:10:01.055Z,11.07
2023-04-18T08:11:01.019Z,11.13
2023-04-18T08:12:01.029Z,10.94
2023-04-18T08:13:01.041Z,10.84
2023-04-18T08:14:01.028Z,11.11
2023-04-18T08:15:01.029Z,11.19
2023-04-18T08:16:01.039Z,11.29
2023-04-18T08:17:00.990Z,11.19
2023-04-18T08:18:01.059Z,11.24
2023-04-18T08:19:00.963Z,11.43
2023-04-18T08:20:00.994Z,11.19
2023-04-18T08:21:00.972Z,11.28
2023-04-18T08:22:00.944Z,11.29
2023-04-18T08:23:07.533Z,10.99
2023-04-18T08:24:02.944Z,11.20
2023-04-18T08:25:04.914Z,11.13
2023-04-18T08:26:01.972Z,10.92
2023-04-18T08:27:00.927Z,11.02
2023-04-18T08:28:00.929Z,11.10
2023-04-18T08:29:00.935Z,10.98
2023-04-18T08:30:00.959Z,10.91
2023-04-18T08:31:01.101Z,10.88
2023-04-18T08:32:00.982Z,10.80
2023-04-18T08:33:00.993Z,11.07
2023-04-18T08:34:02.152Z,11.17
2023-04-18T08:35:00.918Z,11.32
2023-04-18T08:36:00.922Z,11.38
2023-04-18T08:37:00.916Z,11.27
2023-04-18T08:38:00.874Z,11.46
2023-04-18T08:39:00.866Z,11.62
2023-04-18T08:40:00.850Z,11.35
2023-04-18T08:41:00.908Z,11.39
2023-04-18T08:42:00.840Z,11.43
2023-04-18T08:43:00.831Z,11.24
2023-04-18T08:44:01.012Z,11.20
2023-04-18T08:45:00.814Z,11.29
2023-04-18T08:46:00.953Z,11.24
2023-04-18T08:47:00.833Z,11.38
2023-04-18T08:48:00.816Z,11.72
2023-04-18T08:49:00.901Z,11.82
2023-04-18T08:50:00.890Z,11.75
2023-04-18T08:51:00.815Z,11.85
2023-04-18T08:52:00.757Z,11.97
2023-04-18T08:53:00.805Z,12.13
2023-04-18T08:54:00.737Z,12.12
2023-04-18T08:55:00.799Z,12.08
2023-04-18T08:56:00.739Z,11.78
2023-04-18T08:57:00.736Z,11.93
2023-04-18T08:58:00.715Z,12.30
2023-04-18T08:59:00.711Z,12.05
2023-04-18T09:00:00.752Z,12.13
2023-04-18T09:01:00.829Z,12.37
2023-04-18T09:02:00.994Z,12.49
2023-04-18T09:03:00.923Z,12.69
2023-04-18T09:04:00.765Z,13.09
2023-04-18T09:05:00.686Z,12.88
2023-04-18T09:06:00.703Z,12.92
2023-04-18T09:07:00.667Z,13.07
2023-04-18T09:08:00.691Z,13.09
2023-04-18T09:09:00.695Z,13.37
2023-04-18T09:10:00.689Z,13.12
2023-04-18T09:11:00.705Z,13.15
2023-04-18T09:12:00.642Z,12.84
2023-04-18T09:13:00.998Z,12.95
2023-04-18T09:14:00.611Z,13.18
2023-04-18T09:15:00.629Z,12.88
2023-04-18T09:16:00.640Z,12.85
2023-04-18T09:17:00.700Z,12.92
2023-04-18T09:18:00.669Z,13.06
2023-04-18T09:19:00.601Z,13.51
2023-04-18T09:20:00.670Z,13.91
2023-04-18T09:21:00.576Z,14.12
2023-04-18T09:22:00.594Z,13.71
2023-04-18T09:23:00.791Z,13.89
2023-04-18T09:24:00.568Z,13.65
2023-04-18T09:25:00.555Z,13.58
2023-04-18T09:26:00.538Z,13.98
2023-04-18T09:27:00.542Z,14.37
2023-04-18T09:28:06.833Z,14.29
2023-04-18T09:29:00.531Z,14.39
2023-04-18T09:30:00.531Z,14.53
2023-04-18T09:31:00.547Z,14.90
2023-04-18T09:32:00.496Z,14.67
2023-04-18T09:33:00.558Z,14.65
2023-04-18T09:34:00.723Z,13.67
2023-04-18T09:35:02.014Z,13.74
2023-04-18T09:36:00.524Z,13.99
2023-04-18T09:37:00.548Z,14.38
2023-04-18T09:38:00.526Z,14.53
2023-04-18T09:39:00.546Z,14.43
2023-04-18T09:40:00.460Z,14.57
2023-04-18T09:41:00.461Z,14.54
2023-04-18T09:42:00.454Z,14.95
2023-04-18T09:43:00.434Z,16.06
2023-04-18T09:44:00.440Z,16.09
2023-04-18T09:45:00.460Z,16.11
2023-04-18T09:46:00.553Z,16.01
2023-04-18T09:47:00.420Z,16.41
2023-04-18T09:48:00.462Z,16.41
2023-04-18T09:49:00.390Z,15.75
2023-04-18T09:50:00.404Z,17.70
2023-04-18T09:51:00.408Z,17.59
2023-04-18T09:52:02.271Z,16.34
2023-04-18T09:53:00.381Z,16.83
2023-04-18T09:54:01.360Z,16.96
2023-04-18T09:55:01.206Z,16.20
2023-04-18T09:56:00.483Z,15.92
2023-04-18T09:57:00.363Z,16.00
2023-04-18T09:58:00.387Z,15.46
2023-04-18T09:59:00.348Z,15.38
2023-04-18T10:00:00.366Z,15.02
2023-04-18T10:01:01.167Z,14.87
2023-04-18T10:02:00.367Z,14.88
2023-04-18T10:03:00.437Z,15.01
2023-04-18T10:04:01.373Z,15.15
2023-04-18T10:05:00.438Z,15.56
2023-04-18T10:06:00.307Z,15.60
2023-04-18T10:07:00.297Z,15.61
2023-04-18T10:08:00.283Z,15.49
2023-04-18T10:09:00.293Z,14.87
2023-04-18T10:10:00.295Z,15.12
2023-04-18T10:11:00.242Z,14.87
2023-04-18T10:12:00.246Z,14.65
2023-04-18T10:13:00.256Z,14.88
2023-04-18T10:14:00.215Z,14.98
2023-04-18T10:15:00.312Z,14.67
2023-04-18T10:16:00.287Z,14.53
2023-04-18T10:17:00.224Z,14.61
2023-04-18T10:18:05.266Z,14.61
2023-04-18T10:19:02.199Z,14.56
2023-04-18T10:20:00.193Z,14.65
2023-04-18T10:21:00.246Z,14.32
2023-04-18T10:22:00.212Z,14.53
2023-04-18T10:23:00.163Z,15.02
2023-04-18T10:24:00.211Z,15.03
2023-04-18T10:25:00.235Z,14.91
2023-04-18T10:26:00.192Z,15.13
2023-04-18T10:27:00.164Z,15.51
2023-04-18T10:28:00.167Z,15.84
2023-04-18T10:29:00.529Z,16.04
2023-04-18T10:30:00.157Z,16.48
2023-04-18T10:31:00.208Z,16.30
2023-04-18T10:32:00.198Z,15.78
2023-04-18T10:33:00.192Z,16.14
2023-04-18T10:34:05.291Z,15.96
2023-04-18T10:35:02.766Z,15.85
2023-04-18T10:36:00.175Z,15.97
2023-04-18T10:37:00.157Z,15.46
2023-04-18T10:38:00.125Z,15.35
2023-04-18T10:39:00.101Z,15.42
2023-04-18T10:40:00.117Z,15.67
2023-04-18T10:41:00.088Z,16.11
2023-04-18T10:42:00.128Z,16.49
2023-04-18T10:43:00.057Z,16.58
2023-04-18T10:44:00.039Z,16.93
2023-04-18T10:45:00.062Z,18.07
2023-04-18T10:46:00.040Z,18.17
2023-04-18T10:47:00.082Z,18.40
2023-04-18T10:48:00.036Z,18.04
2023-04-18T10:49:00.940Z,17.46
2023-04-18T10:49:59.998Z,16.98
2023-04-18T10:51:00.000Z,16.99
2023-04-18T10:51:59.977Z,16.89
2023-04-18T10:52:59.990Z,16.23
2023-04-18T10:53:59.942Z,16.27
2023-04-18T10:54:59.966Z,16.33
2023-04-18T10:55:59.955Z,16.49
2023-04-18T10:57:00.015Z,16.37
2023-04-18T10:57:59.942Z,16.56
2023-04-18T10:58:59.932Z,16.40
2023-04-18T10:59:59.916Z,16.18
2023-04-18T11:00:59.992Z,15.72
2023-04-18T11:02:00.026Z,15.92
2023-04-18T11:03:00.152Z,15.89
2023-04-18T11:04:00.185Z,15.56
2023-04-18T11:04:59.979Z,15.66
2023-04-18T11:05:59.892Z,15.81
2023-04-18T11:06:59.876Z,15.67
2023-04-18T11:07:59.916Z,15.70
2023-04-18T11:08:59.937Z,15.93
2023-04-18T11:09:59.900Z,15.88
2023-04-18T11:10:59.847Z,16.11
2023-04-18T11:11:59.843Z,16.16
2023-04-18T11:12:59.849Z,15.84
2023-04-18T11:13:59.829Z,16.04
2023-04-18T11:14:59.888Z,16.34
2023-04-18T11:15:59.830Z,16.44
2023-04-18T11:16:59.946Z,16.77
2023-04-18T11:17:59.849Z,17.13
2023-04-18T11:18:59.806Z,18.10
2023-04-18T11:19:59.810Z,18.76
2023-04-18T11:20:59.790Z,18.31
2023-04-18T11:21:59.846Z,19.17
2023-04-18T11:22:59.803Z,19.48
2023-04-18T11:23:59.789Z,18.92
2023-04-18T11:24:59.880Z,17.70
2023-04-18T11:25:59.772Z,17.33
2023-04-18T11:26:59.752Z,16.81
2023-04-18T11:27:59.739Z,16.70
2023-04-18T11:28:59.770Z,16.31
2023-04-18T11:29:59.775Z,15.94
2023-04-18T11:30:59.807Z,15.93
2023-04-18T11:31:59.796Z,15.92
2023-04-18T11:32:59.748Z,15.78
2023-04-18T11:33:59.711Z,15.79
2023-04-18T11:34:59.757Z,15.68
2023-04-18T11:36:00.708Z,15.36
2023-04-18T11:36:59.667Z,15.46
2023-04-18T11:37:59.702Z,15.61
2023-04-18T11:38:59.783Z,15.78
2023-04-18T11:39:59.728Z,15.63
2023-04-18T11:40:59.680Z,15.66
2023-04-18T11:41:59.732Z,15.42
2023-04-18T11:42:59.665Z,15.59
2023-04-18T11:43:59.711Z,15.93
2023-04-18T11:44:59.640Z,15.79
2023-04-18T11:45:59.839Z,15.82
2023-04-18T11:46:59.611Z,15.57
2023-04-18T11:47:59.662Z,15.60
2023-04-18T11:48:59.602Z,15.82
2023-04-18T11:49:59.659Z,15.56
2023-04-18T11:50:59.587Z,15.21
2023-04-18T11:51:59.570Z,15.17
2023-04-18T11:53:00.180Z,15.45
2023-04-18T11:53:59.556Z,15.54
2023-04-18T11:54:59.566Z,15.57
2023-04-18T11:55:59.577Z,15.84
2023-04-18T11:56:59.536Z,15.99
2023-04-18T11:57:59.526Z,15.85
2023-04-18T11:58:59.530Z,16.14
2023-04-18T11:59:59.506Z,16.30
2023-04-18T12:00:59.543Z,16.31
2023-04-18T12:01:59.565Z,16.15
2023-04-18T12:02:59.778Z,16.35
2023-04-18T12:03:59.756Z,16.33
2023-04-18T12:04:59.900Z,16.45
2023-04-18T12:05:59.716Z,16.86
2023-04-18T12:06:59.512Z,16.77
2023-04-18T12:07:59.482Z,16.92
2023-04-18T12:08:59.510Z,16.73
2023-04-18T12:09:59.523Z,16.89
2023-04-18T12:10:59.550Z,17.28
2023-04-18T12:11:59.633Z,17.53
2023-04-18T12:12:59.586Z,18.68
2023-04-18T12:13:59.691Z,18.55
2023-04-18T12:14:59.560Z,18.21
2023-04-18T12:15:59.493Z,19.14
2023-04-18T12:16:59.395Z,19.69
2023-04-18T12:17:59.488Z,19.35
2023-04-18T12:18:59.442Z,18.94
2023-04-18T12:19:59.386Z,18.06
2023-04-18T12:20:59.408Z,17.67
2023-04-18T12:21:59.377Z,17.43
2023-04-18T12:22:59.441Z,16.93
2023-04-18T12:23:59.362Z,16.63
2023-04-18T12:25:00.132Z,16.38
2023-04-18T12:25:59.370Z,16.15
2023-04-18T12:26:59.365Z,16.14
2023-04-18T12:27:59.341Z,15.99
2023-04-18T12:28:59.332Z,15.94
2023-04-18T12:29:59.387Z,16.01
2023-04-18T12:30:59.435Z,15.85
2023-04-18T12:31:59.390Z,15.82
2023-04-18T12:32:59.453Z,15.86
2023-04-18T12:33:59.330Z,15.67
2023-04-18T12:34:59.383Z,15.56
2023-04-18T12:35:59.297Z,15.67
2023-04-18T12:36:59.317Z,15.79
2023-04-18T12:37:59.315Z,15.43
2023-04-18T12:38:59.240Z,15.48
2023-04-18T12:39:59.242Z,15.39
2023-04-18T12:40:59.237Z,15.45
2023-04-18T12:41:59.259Z,15.60
2023-04-18T12:43:00.581Z,15.61
2023-04-18T12:43:59.231Z,15.63
2023-04-18T12:44:59.339Z,15.86
2023-04-18T12:45:59.381Z,16.01
2023-04-18T12:46:59.240Z,15.57
2023-04-18T12:47:59.248Z,15.78
2023-04-18T12:48:59.283Z,15.97
2023-04-18T12:49:59.210Z,16.14
2023-04-18T12:50:59.212Z,16.03
2023-04-18T12:51:59.170Z,16.18
2023-04-18T12:52:59.182Z,16.74
2023-04-18T12:53:59.233Z,16.70
2023-04-18T12:54:59.146Z,16.73
2023-04-18T12:55:59.226Z,16.55
2023-04-18T12:56:59.162Z,16.53
2023-04-18T12:57:59.168Z,16.78
2023-04-18T12:58:59.215Z,16.67
2023-04-18T12:59:59.152Z,16.55
2023-04-18T13:00:59.164Z,16.45
2023-04-18T13:01:59.439Z,16.35
2023-04-18T13:03:00.014Z,16.45